sensor_id;sensor_type;location;lat;lon;timestamp;temperature;humidity
71551;DHT22;59367;48.414;9.872;2023-05-10T00:00:19;17.78210068;69.88525391
71551;DHT22;59367;48.414;9.872;2023-05-10T00:01:26;17.7553978;70.19958496
71551;DHT22;59367;48.414;9.872;2023-05-10T00:02:33;17.73937607;70.29571533
71551;DHT22;59367;48.414;9.872;2023-05-10T00:03:40;17.76874924;70.64971924
71551;DHT22;59367;48.414;9.872;2023-05-10T00:04:47;17.76874924;70.8190918
71551;DHT22;59367;48.414;9.872;2023-05-10T00:05:54;17.76874924;70.74127197
71551;DHT22;59367;48.414;9.872;2023-05-10T00:07:01;17.73937607;70.5947876
71551;DHT22;59367;48.414;9.872;2023-05-10T00:08:08;17.7553978;70.43914795
71551;DHT22;59367;48.414;9.872;2023-05-10T00:09:17;17.73937607;69.78759766
71551;DHT22;59367;48.414;9.872;2023-05-10T00:10:24;17.73937607;70.1171875
71551;DHT22;59367;48.414;9.872;2023-05-10T00:11:31;17.72602463;70.05462646
71551;DHT22;59367;48.414;9.872;2023-05-10T00:12:38;17.71267319;70.11260986
71551;DHT22;59367;48.414;9.872;2023-05-10T00:13:45;17.69932175;70.0592041
71551;DHT22;59367;48.414;9.872;2023-05-10T00:14:52;17.69932175;70.32012939
71551;DHT22;59367;48.414;9.872;2023-05-10T00:15:59;17.68330002;70.24536133
71551;DHT22;59367;48.414;9.872;2023-05-10T00:17:07;17.71267319;70.27282715
71551;DHT22;59367;48.414;9.872;2023-05-10T00:18:14;17.69932175;70.39794922
71551;DHT22;59367;48.414;9.872;2023-05-10T00:19:21;17.66994858;70.54290771
71551;DHT22;59367;48.414;9.872;2023-05-10T00:20:28;17.69932175;70.74584961
71551;DHT22;59367;48.414;9.872;2023-05-10T00:21:35;17.66994858;70.6817627
71551;DHT22;59367;48.414;9.872;2023-05-10T00:22:42;17.65659714;70.62988281
71551;DHT22;59367;48.414;9.872;2023-05-10T00:23:49;17.66994858;70.66192627
71551;DHT22;59367;48.414;9.872;2023-05-10T00:24:56;17.66994858;70.2835083
71551;DHT22;59367;48.414;9.872;2023-05-10T00:26:04;17.66994858;70.48339844
71551;DHT22;59367;48.414;9.872;2023-05-10T00:27:11;17.68330002;70.57495117
71551;DHT22;59367;48.414;9.872;2023-05-10T00:28:18;17.68330002;70.69549561
71551;DHT22;59367;48.414;9.872;2023-05-10T00:29:25;17.64057541;70.82672119
71551;DHT22;59367;48.414;9.872;2023-05-10T00:30:32;17.66994858;70.82214355
71551;DHT22;59367;48.414;9.872;2023-05-10T00:31:39;17.64057541;70.74584961
71551;DHT22;59367;48.414;9.872;2023-05-10T00:32:46;17.65659714;70.75042725
71551;DHT22;59367;48.414;9.872;2023-05-10T00:33:54;17.65659714;70.90911865
71551;DHT22;59367;48.414;9.872;2023-05-10T00:35:01;17.65659714;71.03881836
71551;DHT22;59367;48.414;9.872;2023-05-10T00:36:09;17.65659714;71.07849121
71551;DHT22;59367;48.414;9.872;2023-05-10T00:37:16;17.65659714;71.08917236
71551;DHT22;59367;48.414;9.872;2023-05-10T00:38:23;17.64057541;71.21582031
71551;DHT22;59367;48.414;9.872;2023-05-10T00:39:30;17.65659714;71.27685547
71551;DHT22;59367;48.414;9.872;2023-05-10T00:40:38;17.66994858;71.2310791
71551;DHT22;59367;48.414;9.872;2023-05-10T00:41:45;17.66994858;71.1807251
71551;DHT22;59367;48.414;9.872;2023-05-10T00:42:52;17.64057541;70.61767578
71551;DHT22;59367;48.414;9.872;2023-05-10T00:43:59;17.64057541;70.56732178
71551;DHT22;59367;48.414;9.872;2023-05-10T00:45:07;17.64057541;70.68939209
71551;DHT22;59367;48.414;9.872;2023-05-10T00:46:15;17.66994858;70.59326172
71551;DHT22;59367;48.414;9.872;2023-05-10T00:47:23;17.64057541;70.4284668
71551;DHT22;59367;48.414;9.872;2023-05-10T00:48:31;17.60051727;70.43304443
71551;DHT22;59367;48.414;9.872;2023-05-10T00:49:39;17.60051727;70.17211914
71551;DHT22;59367;48.414;9.872;2023-05-10T00:50:47;17.60051727;70.24078369
71551;DHT22;59367;48.414;9.872;2023-05-10T00:51:54;17.60051727;70.32012939
71551;DHT22;59367;48.414;9.872;2023-05-10T00:53:02;17.56847382;70.42541504
71551;DHT22;59367;48.414;9.872;2023-05-10T00:54:09;17.56847382;70.55358887
71551;DHT22;59367;48.414;9.872;2023-05-10T00:55:18;17.56847382;70.47424316
71551;DHT22;59367;48.414;9.872;2023-05-10T00:56:25;17.54177094;70.51086426
71551;DHT22;59367;48.414;9.872;2023-05-10T00:57:33;17.52574921;70.35675049
71551;DHT22;59367;48.414;9.872;2023-05-10T00:58:41;17.52574921;70.13702393
71551;DHT22;59367;48.414;9.872;2023-05-10T00:59:49;17.49904633;70.21331787
71551;DHT22;59367;48.414;9.872;2023-05-10T01:00:57;17.52574921;69.99969482
71551;DHT22;59367;48.414;9.872;2023-05-10T01:02:05;17.51239777;70.17669678
71551;DHT22;59367;48.414;9.872;2023-05-10T01:03:13;17.49904633;70.09429932
71551;DHT22;59367;48.414;9.872;2023-05-10T01:04:20;17.51239777;70.01647949
71551;DHT22;59367;48.414;9.872;2023-05-10T01:05:28;17.4830246;70.18127441
71551;DHT22;59367;48.414;9.872;2023-05-10T01:06:35;17.44297028;70.36437988
71551;DHT22;59367;48.414;9.872;2023-05-10T01:07:42;17.45632172;70.43457031
71551;DHT22;59367;48.414;9.872;2023-05-10T01:08:49;17.44297028;70.41168213
71551;DHT22;59367;48.414;9.872;2023-05-10T01:09:57;17.44297028;70.34301758
71551;DHT22;59367;48.414;9.872;2023-05-10T01:11:04;17.40024567;69.91729736
71551;DHT22;59367;48.414;9.872;2023-05-10T01:12:11;17.40024567;70.20568848
71551;DHT22;59367;48.414;9.872;2023-05-10T01:13:23;17.40024567;70.57495117
71551;DHT22;59367;48.414;9.872;2023-05-10T01:14:33;17.38689423;70.72296143
71551;DHT22;59367;48.414;9.872;2023-05-10T01:15:41;17.38689423;70.82214355
71551;DHT22;59367;48.414;9.872;2023-05-10T01:16:49;17.37086868;70.96862793
71551;DHT22;59367;48.414;9.872;2023-05-10T01:17:57;17.37086868;70.90911865
71551;DHT22;59367;48.414;9.872;2023-05-10T01:19:04;17.35751724;70.81451416
71551;DHT22;59367;48.414;9.872;2023-05-10T01:20:14;17.37086868;70.79925537
71551;DHT22;59367;48.414;9.872;2023-05-10T01:21:27;17.35751724;70.82672119
71551;DHT22;59367;48.414;9.872;2023-05-10T01:22:57;17.38689423;70.78094482
71551;DHT22;59367;48.414;9.872;2023-05-10T01:24:37;17.35751724;71.0067749
71551;DHT22;59367;48.414;9.872;2023-05-10T01:26:16;17.35751724;70.9564209
71551;DHT22;59367;48.414;9.872;2023-05-10T01:27:51;17.3441658;70.91369629
71551;DHT22;59367;48.414;9.872;2023-05-10T01:29:33;17.35751724;70.92437744
71551;DHT22;59367;48.414;9.872;2023-05-10T01:31:19;17.32814407;71.04797363
71551;DHT22;59367;48.414;9.872;2023-05-10T01:32:35;17.35751724;71.24481201
71551;DHT22;59367;48.414;9.872;2023-05-10T01:33:46;17.35751724;71.30432129
71551;DHT22;59367;48.414;9.872;2023-05-10T01:35:03;17.35751724;71.36383057
71551;DHT22;59367;48.414;9.872;2023-05-10T01:36:18;17.35751724;71.41418457
71551;DHT22;59367;48.414;9.872;2023-05-10T01:37:33;17.3441658;71.53167725
71551;DHT22;59367;48.414;9.872;2023-05-10T01:38:47;17.38689423;71.46911621
71551;DHT22;59367;48.414;9.872;2023-05-10T01:40:02;17.3441658;71.43096924
71551;DHT22;59367;48.414;9.872;2023-05-10T01:41:17;17.37086868;71.12884521
71551;DHT22;59367;48.414;9.872;2023-05-10T01:42:30;17.35751724;70.93658447
71551;DHT22;59367;48.414;9.872;2023-05-10T01:43:42;17.3441658;70.78552246
71551;DHT22;59367;48.414;9.872;2023-05-10T01:45:02;17.35751724;70.81451416
71551;DHT22;59367;48.414;9.872;2023-05-10T01:46:17;17.35751724;70.96405029
71551;DHT22;59367;48.414;9.872;2023-05-10T01:47:34;17.3441658;70.98236084
71551;DHT22;59367;48.414;9.872;2023-05-10T01:48:47;17.32814407;71.02050781
71551;DHT22;59367;48.414;9.872;2023-05-10T01:49:58;17.32814407;71.04187012
71551;DHT22;59367;48.414;9.872;2023-05-10T01:51:08;17.32814407;71.06018066
71551;DHT22;59367;48.414;9.872;2023-05-10T01:52:18;17.3441658;70.95489502
71551;DHT22;59367;48.414;9.872;2023-05-10T01:53:25;17.3441658;70.95489502
71551;DHT22;59367;48.414;9.872;2023-05-10T01:54:36;17.32814407;70.9197998
71551;DHT22;59367;48.414;9.872;2023-05-10T01:55:48;17.3441658;70.86334229
71551;DHT22;59367;48.414;9.872;2023-05-10T01:57:00;17.3441658;70.73516846
71551;DHT22;59367;48.414;9.872;2023-05-10T01:58:13;17.35751724;70.83740234
71551;DHT22;59367;48.414;9.872;2023-05-10T01:59:22;17.35751724;70.85571289
71551;DHT22;59367;48.414;9.872;2023-05-10T02:00:35;17.3441658;70.86334229
71551;DHT22;59367;48.414;9.872;2023-05-10T02:01:44;17.32814407;70.72143555
71551;DHT22;59367;48.414;9.872;2023-05-10T02:02:52;17.3441658;70.46508789
71551;DHT22;59367;48.414;9.872;2023-05-10T02:04:01;17.31479263;70.35064697
71551;DHT22;59367;48.414;9.872;2023-05-10T02:05:10;17.27206802;70.53985596
71551;DHT22;59367;48.414;9.872;2023-05-10T02:06:21;17.28808975;70.55358887
71551;DHT22;59367;48.414;9.872;2023-05-10T02:07:30;17.25871658;70.5581665
71551;DHT22;59367;48.414;9.872;2023-05-10T02:08:39;17.27206802;70.52154541
71551;DHT22;59367;48.414;9.872;2023-05-10T02:09:48;17.24536514;70.14923096
71551;DHT22;59367;48.414;9.872;2023-05-10T02:10:57;17.21599197;70.06378174
71551;DHT22;59367;48.414;9.872;2023-05-10T02:12:07;17.20264053;70.07141113
71551;DHT22;59367;48.414;9.872;2023-05-10T02:13:16;17.22934341;70.1461792
71551;DHT22;59367;48.414;9.872;2023-05-10T02:14:24;17.22934341;70.1171875
71551;DHT22;59367;48.414;9.872;2023-05-10T02:15:33;17.17326736;69.74639893
71551;DHT22;59367;48.414;9.872;2023-05-10T02:16:42;17.17326736;69.50836182
71551;DHT22;59367;48.414;9.872;2023-05-10T02:17:50;17.18928909;69.62280273
71551;DHT22;59367;48.414;9.872;2023-05-10T02:18:59;17.14656448;69.73419189
71551;DHT22;59367;48.414;9.872;2023-05-10T02:20:10;17.15991592;69.64569092
71551;DHT22;59367;48.414;9.872;2023-05-10T02:21:18;17.14656448;69.79217529
71551;DHT22;59367;48.414;9.872;2023-05-10T02:22:26;17.13321304;69.86999512
71551;DHT22;59367;48.414;9.872;2023-05-10T02:23:34;17.15991592;69.67468262
71551;DHT22;59367;48.414;9.872;2023-05-10T02:24:42;17.1171875;69.12994385
71551;DHT22;59367;48.414;9.872;2023-05-10T02:25:51;17.09048462;68.49822998
71551;DHT22;59367;48.414;9.872;2023-05-10T02:27:00;17.10383606;68.50128174
71551;DHT22;59367;48.414;9.872;2023-05-10T02:28:09;17.09048462;68.45703125
71551;DHT22;59367;48.414;9.872;2023-05-10T02:29:19;17.06111145;68.44329834
71551;DHT22;59367;48.414;9.872;2023-05-10T02:30:27;17.04776001;68.1137085
71551;DHT22;59367;48.414;9.872;2023-05-10T02:31:35;17.01838684;68.25866699
71551;DHT22;59367;48.414;9.872;2023-05-10T02:32:42;16.97833252;68.26019287
71551;DHT22;59367;48.414;9.872;2023-05-10T02:33:51;16.96231079;68.15795898
71551;DHT22;59367;48.414;9.872;2023-05-10T02:34:59;16.91958618;68.03131104
71551;DHT22;59367;48.414;9.872;2023-05-10T02:36:10;16.90623474;67.38433838
71551;DHT22;59367;48.414;9.872;2023-05-10T02:37:19;16.87953186;67.73681641
71551;DHT22;59367;48.414;9.872;2023-05-10T02:38:27;16.87953186;67.92602539
71551;DHT22;59367;48.414;9.872;2023-05-10T02:39:35;16.86350632;67.91229248
71551;DHT22;59367;48.414;9.872;2023-05-10T02:40:44;16.80475998;68.00231934
71551;DHT22;59367;48.414;9.872;2023-05-10T02:41:52;16.79140854;67.62390137
71551;DHT22;59367;48.414;9.872;2023-05-10T02:43:01;16.79140854;67.81158447
71551;DHT22;59367;48.414;9.872;2023-05-10T02:44:10;16.76203537;67.53997803
71551;DHT22;59367;48.414;9.872;2023-05-10T02:45:20;16.74868393;68.06335449
71551;DHT22;59367;48.414;9.872;2023-05-10T02:46:28;16.73533249;68.21899414
71551;DHT22;59367;48.414;9.872;2023-05-10T02:47:36;16.72198105;67.95806885
71551;DHT22;59367;48.414;9.872;2023-05-10T02:48:43;16.69260788;68.26324463
71551;DHT22;59367;48.414;9.872;2023-05-10T02:49:51;16.70595932;68.800354
71551;DHT22;59367;48.414;9.872;2023-05-10T02:51:00;16.67925644;68.44787598
71551;DHT22;59367;48.414;9.872;2023-05-10T02:52:10;16.67925644;68.50738525
71551;DHT22;59367;48.414;9.872;2023-05-10T02:53:22;16.67925644;68.61724854
71551;DHT22;59367;48.414;9.872;2023-05-10T02:54:33;16.64988327;68.6706543
71551;DHT22;59367;48.414;9.872;2023-05-10T02:55:43;16.665905;68.31512451
71551;DHT22;59367;48.414;9.872;2023-05-10T02:56:55;16.64988327;67.73681641
71551;DHT22;59367;48.414;9.872;2023-05-10T02:58:04;16.63653183;67.70629883
71551;DHT22;59367;48.414;9.872;2023-05-10T02:59:11;16.60715485;68.10760498
71551;DHT22;59367;48.414;9.872;2023-05-10T03:00:19;16.60715485;68.40667725
71551;DHT22;59367;48.414;9.872;2023-05-10T03:01:26;16.60715485;68.86444092
71551;DHT22;59367;48.414;9.872;2023-05-10T03:02:33;16.62317657;69.05517578
71551;DHT22;59367;48.414;9.872;2023-05-10T03:03:40;16.59380341;68.93157959
71551;DHT22;59367;48.414;9.872;2023-05-10T03:04:47;16.60715485;68.95141602
71551;DHT22;59367;48.414;9.872;2023-05-10T03:05:54;16.58045197;68.76831055
71551;DHT22;59367;48.414;9.872;2023-05-10T03:07:02;16.60715485;68.79425049
71551;DHT22;59367;48.414;9.872;2023-05-10T03:08:09;16.59380341;69.17877197
71551;DHT22;59367;48.414;9.872;2023-05-10T03:09:16;16.59380341;69.3572998
71551;DHT22;59367;48.414;9.872;2023-05-10T03:10:27;16.59380341;69.27642822
71551;DHT22;59367;48.414;9.872;2023-05-10T03:11:43;16.56710052;69.07348633
71551;DHT22;59367;48.414;9.872;2023-05-10T03:13:10;16.58045197;68.97888184
71551;DHT22;59367;48.414;9.872;2023-05-10T03:14:28;16.56710052;69.01550293
71551;DHT22;59367;48.414;9.872;2023-05-10T03:15:42;16.53772736;69.12994385
71551;DHT22;59367;48.414;9.872;2023-05-10T03:16:52;16.56710052;68.85528564
71551;DHT22;59367;48.414;9.872;2023-05-10T03:18:06;16.56710052;68.35021973
71551;DHT22;59367;48.414;9.872;2023-05-10T03:19:21;16.52437592;68.06335449
71551;DHT22;59367;48.414;9.872;2023-05-10T03:20:35;16.50835419;68.18084717
71551;DHT22;59367;48.414;9.872;2023-05-10T03:21:47;16.48165131;68.27392578
71551;DHT22;59367;48.414;9.872;2023-05-10T03:22:55;16.48165131;68.49365234
71551;DHT22;59367;48.414;9.872;2023-05-10T03:24:10;16.48165131;68.6340332
71551;DHT22;59367;48.414;9.872;2023-05-10T03:25:19;16.46829987;68.49212646
71551;DHT22;59367;48.414;9.872;2023-05-10T03:26:29;16.45227814;68.26934814
71551;DHT22;59367;48.414;9.872;2023-05-10T03:27:38;16.48165131;68.34564209
71551;DHT22;59367;48.414;9.872;2023-05-10T03:28:46;16.45227814;68.56689453
71551;DHT22;59367;48.414;9.872;2023-05-10T03:29:55;16.4389267;68.42803955
71551;DHT22;59367;48.414;9.872;2023-05-10T03:31:03;16.41222382;67.94433594
71551;DHT22;59367;48.414;9.872;2023-05-10T03:32:11;16.42557526;67.93823242
71551;DHT22;59367;48.414;9.872;2023-05-10T03:33:18;16.38285065;68.13964844
71551;DHT22;59367;48.414;9.872;2023-05-10T03:34:30;16.38285065;68.26782227
71551;DHT22;59367;48.414;9.872;2023-05-10T03:35:37;16.39620209;68.65844727
71551;DHT22;59367;48.414;9.872;2023-05-10T03:36:44;16.35347366;68.39141846
71551;DHT22;59367;48.414;9.872;2023-05-10T03:37:51;16.36949539;68.60351563
71551;DHT22;59367;48.414;9.872;2023-05-10T03:38:58;16.34012222;68.65692139
71551;DHT22;59367;48.414;9.872;2023-05-10T03:40:07;16.32677078;68.46618652
71551;DHT22;59367;48.414;9.872;2023-05-10T03:41:14;16.32677078;68.25866699
71551;DHT22;59367;48.414;9.872;2023-05-10T03:42:21;16.32677078;68.45550537
71551;DHT22;59367;48.414;9.872;2023-05-10T03:43:28;16.29739761;68.36090088
71551;DHT22;59367;48.414;9.872;2023-05-10T03:44:35;16.29739761;68.49212646
71551;DHT22;59367;48.414;9.872;2023-05-10T03:45:43;16.31341934;68.60351563
71551;DHT22;59367;48.414;9.872;2023-05-10T03:46:49;16.28404617;68.66760254
71551;DHT22;59367;48.414;9.872;2023-05-10T03:47:57;16.27069473;68.53485107
71551;DHT22;59367;48.414;9.872;2023-05-10T03:49:04;16.25734329;68.28613281
71551;DHT22;59367;48.414;9.872;2023-05-10T03:50:12;16.24132156;68.2144165
71551;DHT22;59367;48.414;9.872;2023-05-10T03:51:19;16.25734329;68.19610596
71551;DHT22;59367;48.414;9.872;2023-05-10T03:52:26;16.21461868;68.37768555
71551;DHT22;59367;48.414;9.872;2023-05-10T03:53:33;16.19859695;68.29681396
71551;DHT22;59367;48.414;9.872;2023-05-10T03:54:40;16.18524551;68.07556152
71551;DHT22;59367;48.414;9.872;2023-05-10T03:55:47;16.1425209;67.98858643
71551;DHT22;59367;48.414;9.872;2023-05-10T03:56:55;16.1425209;68.31512451
71551;DHT22;59367;48.414;9.872;2023-05-10T03:58:02;16.1425209;68.83087158
71551;DHT22;59367;48.414;9.872;2023-05-10T03:59:09;16.12916946;68.92852783
71551;DHT22;59367;48.414;9.872;2023-05-10T04:00:17;16.11581421;68.47991943
71551;DHT22;59367;48.414;9.872;2023-05-10T04:01:24;16.08644104;68.00842285
71551;DHT22;59367;48.414;9.872;2023-05-10T04:02:31;16.08644104;68.12744141
71551;DHT22;59367;48.414;9.872;2023-05-10T04:03:38;16.05973816;68.33190918
71551;DHT22;59367;48.414;9.872;2023-05-10T04:04:45;16.05973816;68.58978271
71551;DHT22;59367;48.414;9.872;2023-05-10T04:05:52;16.04371643;68.4387207
71551;DHT22;59367;48.414;9.872;2023-05-10T04:07:05;16.03036499;68.36547852
71551;DHT22;59367;48.414;9.872;2023-05-10T04:08:12;16.03036499;68.12744141
71551;DHT22;59367;48.414;9.872;2023-05-10T04:09:19;16.01434326;68.24493408
71551;DHT22;59367;48.414;9.872;2023-05-10T04:10:26;16.00099182;68.22357178
71551;DHT22;59367;48.414;9.872;2023-05-10T04:11:33;16.01434326;67.87872314
71551;DHT22;59367;48.414;9.872;2023-05-10T04:12:40;15.98497009;68.01147461
71551;DHT22;59367;48.414;9.872;2023-05-10T04:13:47;15.97161865;68.23730469
71551;DHT22;59367;48.414;9.872;2023-05-10T04:14:55;15.97161865;68.38684082
71551;DHT22;59367;48.414;9.872;2023-05-10T04:16:02;15.94491577;68.44177246
71551;DHT22;59367;48.414;9.872;2023-05-10T04:17:09;15.92889404;68.56689453
71551;DHT22;59367;48.414;9.872;2023-05-10T04:18:16;15.95826721;68.69049072
71551;DHT22;59367;48.414;9.872;2023-05-10T04:19:23;15.92889404;68.84460449
71551;DHT22;59367;48.414;9.872;2023-05-10T04:20:31;15.92889404;68.78509521
71551;DHT22;59367;48.414;9.872;2023-05-10T04:21:39;15.92889404;68.76373291
71551;DHT22;59367;48.414;9.872;2023-05-10T04:22:46;15.90219116;68.84002686
71551;DHT22;59367;48.414;9.872;2023-05-10T04:23:53;15.9155426;69.17877197
71551;DHT22;59367;48.414;9.872;2023-05-10T04:25:00;15.92889404;69.34051514
71551;DHT22;59367;48.414;9.872;2023-05-10T04:26:07;15.9155426;69.67468262
71551;DHT22;59367;48.414;9.872;2023-05-10T04:27:14;15.88616943;69.54040527
71551;DHT22;59367;48.414;9.872;2023-05-10T04:28:21;15.9155426;69.62432861
71551;DHT22;59367;48.414;9.872;2023-05-10T04:29:28;15.90219116;69.60144043
71551;DHT22;59367;48.414;9.872;2023-05-10T04:30:35;15.88616943;69.49005127
71551;DHT22;59367;48.414;9.872;2023-05-10T04:31:43;15.88616943;69.54040527
71551;DHT22;59367;48.414;9.872;2023-05-10T04:32:50;15.90219116;69.34509277
71551;DHT22;59367;48.414;9.872;2023-05-10T04:33:57;15.87281418;69.22149658
71551;DHT22;59367;48.414;9.872;2023-05-10T04:35:04;15.85946274;69.16046143
71551;DHT22;59367;48.414;9.872;2023-05-10T04:36:12;15.87281418;68.81408691
71551;DHT22;59367;48.414;9.872;2023-05-10T04:37:19;15.85946274;68.55621338
71551;DHT22;59367;48.414;9.872;2023-05-10T04:38:26;15.8461113;68.46160889
71551;DHT22;59367;48.414;9.872;2023-05-10T04:39:33;15.83008957;68.74847412
71551;DHT22;59367;48.414;9.872;2023-05-10T04:40:40;15.8461113;69.16656494
71551;DHT22;59367;48.414;9.872;2023-05-10T04:41:47;15.85946274;69.52667236
71551;DHT22;59367;48.414;9.872;2023-05-10T04:42:54;15.85946274;69.58618164
71551;DHT22;59367;48.414;9.872;2023-05-10T04:44:01;15.8461113;69.68231201
71551;DHT22;59367;48.414;9.872;2023-05-10T04:45:09;15.88616943;69.85778809
71551;DHT22;59367;48.414;9.872;2023-05-10T04:46:16;15.8461113;69.94934082
71551;DHT22;59367;48.414;9.872;2023-05-10T04:47:23;15.90219116;69.9798584
71551;DHT22;59367;48.414;9.872;2023-05-10T04:48:31;15.90219116;70.18737793
71551;DHT22;59367;48.414;9.872;2023-05-10T04:49:38;15.9155426;70.25909424
71551;DHT22;59367;48.414;9.872;2023-05-10T04:50:45;15.90219116;70.20874023
71551;DHT22;59367;48.414;9.872;2023-05-10T04:51:52;15.94491577;70.18585205
71551;DHT22;59367;48.414;9.872;2023-05-10T04:53:00;15.95826721;70.27740479
71551;DHT22;59367;48.414;9.872;2023-05-10T04:54:07;15.94491577;70.47119141
71551;DHT22;59367;48.414;9.872;2023-05-10T04:55:14;15.98497009;70.40100098
71551;DHT22;59367;48.414;9.872;2023-05-10T04:56:21;16.00099182;70.01800537
71551;DHT22;59367;48.414;9.872;2023-05-10T04:57:28;15.98497009;69.86541748
71551;DHT22;59367;48.414;9.872;2023-05-10T04:58:35;16.00099182;69.79827881
71551;DHT22;59367;48.414;9.872;2023-05-10T04:59:42;16.04371643;69.96307373
71551;DHT22;59367;48.414;9.872;2023-05-10T05:00:49;16.05973816;69.81964111
71551;DHT22;59367;48.414;9.872;2023-05-10T05:01:56;16.05973816;69.85778809
71551;DHT22;59367;48.414;9.872;2023-05-10T05:03:03;16.05973816;69.83795166
71551;DHT22;59367;48.414;9.872;2023-05-10T05:04:10;16.0730896;69.77081299
71551;DHT22;59367;48.414;9.872;2023-05-10T05:05:18;16.08644104;69.72351074
71551;DHT22;59367;48.414;9.872;2023-05-10T05:06:25;16.11581421;69.65026855
71551;DHT22;59367;48.414;9.872;2023-05-10T05:07:32;16.10246277;69.52819824
71551;DHT22;59367;48.414;9.872;2023-05-10T05:08:39;16.12916946;69.59228516
71551;DHT22;59367;48.414;9.872;2023-05-10T05:09:46;16.15854263;69.60601807
71551;DHT22;59367;48.414;9.872;2023-05-10T05:10:54;16.18524551;69.74182129
71551;DHT22;59367;48.414;9.872;2023-05-10T05:12:10;16.19859695;69.59533691
71551;DHT22;59367;48.414;9.872;2023-05-10T05:13:19;16.22797012;69.67010498
71551;DHT22;59367;48.414;9.872;2023-05-10T05:14:29;16.25734329;69.50531006
71551;DHT22;59367;48.414;9.872;2023-05-10T05:15:36;16.27069473;69.50836182
71551;DHT22;59367;48.414;9.872;2023-05-10T05:16:44;16.31341934;69.36798096
71551;DHT22;59367;48.414;9.872;2023-05-10T05:17:51;16.34012222;69.18487549
71551;DHT22;59367;48.414;9.872;2023-05-10T05:19:00;16.35347366;68.99719238
71551;DHT22;59367;48.414;9.872;2023-05-10T05:20:08;16.38285065;68.95141602
71551;DHT22;59367;48.414;9.872;2023-05-10T05:21:22;16.39620209;68.76678467
71551;DHT22;59367;48.414;9.872;2023-05-10T05:22:29;16.42557526;68.81256104
71551;DHT22;59367;48.414;9.872;2023-05-10T05:23:41;16.46829987;69.14672852
71551;DHT22;59367;48.414;9.872;2023-05-10T05:24:48;16.50835419;69.26269531
71551;DHT22;59367;48.414;9.872;2023-05-10T05:25:56;16.52437592;69.37561035
71551;DHT22;59367;48.414;9.872;2023-05-10T05:27:11;16.53772736;69.29779053
71551;DHT22;59367;48.414;9.872;2023-05-10T05:28:19;16.59380341;69.31762695
71551;DHT22;59367;48.414;9.872;2023-05-10T05:29:26;16.62317657;69.24285889
71551;DHT22;59367;48.414;9.872;2023-05-10T05:30:33;16.63653183;68.96820068
71551;DHT22;59367;48.414;9.872;2023-05-10T05:31:40;16.665905;68.71337891
71551;DHT22;59367;48.414;9.872;2023-05-10T05:32:47;16.67925644;68.62640381
71551;DHT22;59367;48.414;9.872;2023-05-10T05:33:54;16.72198105;68.42498779
71551;DHT22;59367;48.414;9.872;2023-05-10T05:35:01;16.72198105;68.11676025
71551;DHT22;59367;48.414;9.872;2023-05-10T05:36:09;16.76203537;68.06640625
71551;DHT22;59367;48.414;9.872;2023-05-10T05:37:19;16.7780571;68.10760498
71551;DHT22;59367;48.414;9.872;2023-05-10T05:38:26;16.80475998;68.51043701
71551;DHT22;59367;48.414;9.872;2023-05-10T05:39:35;16.80475998;68.44177246
71551;DHT22;59367;48.414;9.872;2023-05-10T05:40:42;16.85015488;68.24951172
71551;DHT22;59367;48.414;9.872;2023-05-10T05:41:49;16.86350632;67.99316406
71551;DHT22;59367;48.414;9.872;2023-05-10T05:42:58;16.90623474;68.01147461
71551;DHT22;59367;48.414;9.872;2023-05-10T05:44:05;16.91958618;67.60559082
71551;DHT22;59367;48.414;9.872;2023-05-10T05:45:13;16.91958618;67.39501953
71551;DHT22;59367;48.414;9.872;2023-05-10T05:46:20;16.94895935;67.53997803
71551;DHT22;59367;48.414;9.872;2023-05-10T05:47:27;16.93560791;67.64678955
71551;DHT22;59367;48.414;9.872;2023-05-10T05:48:36;16.97833252;67.59490967
71551;DHT22;59367;48.414;9.872;2023-05-10T05:49:43;17.0050354;67.87567139
71551;DHT22;59367;48.414;9.872;2023-05-10T05:50:50;17.01838684;67.91992188
71551;DHT22;59367;48.414;9.872;2023-05-10T05:51:57;17.03440857;67.70477295
71551;DHT22;59367;48.414;9.872;2023-05-10T05:53:05;17.06111145;67.64678955
71551;DHT22;59367;48.414;9.872;2023-05-10T05:54:12;17.09048462;67.88330078
71551;DHT22;59367;48.414;9.872;2023-05-10T05:55:19;17.1171875;67.32940674
71551;DHT22;59367;48.414;9.872;2023-05-10T05:56:26;17.09048462;67.31262207
71551;DHT22;59367;48.414;9.872;2023-05-10T05:57:33;17.1171875;67.24853516
71551;DHT22;59367;48.414;9.872;2023-05-10T05:58:40;17.1171875;67.27905273
71551;DHT22;59367;48.414;9.872;2023-05-10T05:59:47;17.15991592;67.2164917
71551;DHT22;59367;48.414;9.872;2023-05-10T06:00:55;17.15991592;67.06848145
71551;DHT22;59367;48.414;9.872;2023-05-10T06:02:02;17.18928909;67.02270508
71551;DHT22;59367;48.414;9.872;2023-05-10T06:03:09;17.18928909;66.71295166
71551;DHT22;59367;48.414;9.872;2023-05-10T06:04:16;17.22934341;66.42303467
71551;DHT22;59367;48.414;9.872;2023-05-10T06:05:23;17.18928909;66.5435791
71551;DHT22;59367;48.414;9.872;2023-05-10T06:06:31;17.25871658;66.89453125